Time;durP1;ratioP1;P1;durP2;ratioP2;P2;SDS_P1;SDS_P2;PMS_P1;PMS_P2;Temp;Humidity;BMP_temperature;BMP_pressure;BME280_temperature;BME280_humidity;BME280_pressure;Samples;Min_cycle;Max_cycle;Signal;HPM_P1;HPM_P2
2024/01/15 00:01:50;;;;;;;14.98;2.40;;;2.20;99.90;;;;;;5071926;28;20033;-70
2024/01/15 00:04:16;;;;;;;19.38;2.85;;;2.20;99.90;;;;;;5071517;28;20401;-70
2024/01/15 00:06:41;;;;;;;16.23;2.97;;;2.20;99.90;;;;;;5071866;28;20063;-70
2024/01/15 00:09:07;;;;;;;11.55;2.08;;;2.10;99.90;;;;;;5071576;28;20059;-70
2024/01/15 00:11:33;;;;;;;15.77;2.47;;;2.10;99.90;;;;;;5072841;28;20048;-70
2024/01/15 00:13:59;;;;;;;16.73;2.10;;;2.10;99.90;;;;;;5073001;28;20063;-70
2024/01/15 00:16:24;;;;;;;16.42;2.28;;;2.10;99.90;;;;;;5072681;28;20040;-70
2024/01/15 00:18:50;;;;;;;15.70;2.45;;;2.10;99.90;;;;;;5071519;28;20040;-70
2024/01/15 00:21:15;;;;;;;15.98;2.45;;;2.10;99.90;;;;;;5071445;28;20050;-70
2024/01/15 00:23:44;;;;;;;13.45;2.08;;;2.10;99.90;;;;;;5054593;28;20044;-70
2024/01/15 00:26:10;;;;;;;15.10;2.00;;;2.20;99.90;;;;;;5072930;28;20158;-70
2024/01/15 00:28:37;;;;;;;13.20;2.03;;;2.10;99.90;;;;;;5071372;28;20119;-70
2024/01/15 00:31:03;;;;;;;9.82;1.50;;;2.20;99.90;;;;;;5072855;28;20044;-70
2024/01/15 00:33:29;;;;;;;16.58;2.10;;;2.10;99.90;;;;;;5071507;28;20040;-70
2024/01/15 00:35:54;;;;;;;15.20;2.22;;;2.10;99.90;;;;;;5071297;28;20082;-70
2024/01/15 00:38:20;;;;;;;17.48;2.50;;;2.10;99.90;;;;;;5072789;28;20032;-70
2024/01/15 00:40:46;;;;;;;14.43;1.70;;;2.20;99.90;;;;;;5072498;28;20564;-70
2024/01/15 00:43:11;;;;;;;16.60;2.15;;;2.10;99.90;;;;;;5071137;28;20047;-70
2024/01/15 00:45:37;;;;;;;17.80;2.40;;;2.20;99.90;;;;;;5072608;28;20040;-69
2024/01/15 00:48:03;;;;;;;12.63;2.00;;;2.20;99.90;;;;;;5072685;28;20393;-70
2024/01/15 00:50:29;;;;;;;15.73;1.88;;;2.30;99.90;;;;;;5071199;28;20048;-70
2024/01/15 00:52:55;;;;;;;13.40;1.58;;;2.30;99.90;;;;;;5074279;28;20041;-70
2024/01/15 00:55:20;;;;;;;16.38;2.28;;;2.30;99.90;;;;;;5074924;28;20091;-70
2024/01/15 00:57:46;;;;;;;20.38;2.38;;;2.30;99.90;;;;;;5076222;28;20517;-70
2024/01/15 01:00:12;;;;;;;15.13;2.45;;;2.40;99.90;;;;;;5076191;28;20036;-70
2024/01/15 01:02:37;;;;;;;11.82;2.38;;;2.40;99.90;;;;;;5075835;28;20512;-70
2024/01/15 01:05:03;;;;;;;18.00;2.10;;;2.40;99.90;;;;;;5074437;28;20040;-70
2024/01/15 01:07:29;;;;;;;14.73;2.05;;;2.50;99.90;;;;;;5075980;28;20170;-70
2024/01/15 01:09:55;;;;;;;16.80;2.20;;;2.40;99.90;;;;;;5074732;28;20040;-70
2024/01/15 01:12:21;;;;;;;15.88;2.35;;;2.50;99.90;;;;;;5074769;28;20446;-70
2024/01/15 01:14:46;;;;;;;14.43;2.50;;;2.50;99.90;;;;;;5075524;28;20116;-70
2024/01/15 01:17:12;;;;;;;17.30;2.40;;;2.50;99.90;;;;;;5075819;28;20040;-70
2024/01/15 01:19:38;;;;;;;15.00;2.95;;;2.50;99.90;;;;;;5075789;28;20043;-70
2024/01/15 01:22:03;;;;;;;15.43;2.17;;;2.50;99.90;;;;;;5074280;28;20044;-70
2024/01/15 01:24:29;;;;;;;15.73;2.30;;;2.40;99.90;;;;;;5074214;28;20076;-69
2024/01/15 01:26:55;;;;;;;13.43;1.85;;;2.50;99.90;;;;;;5074139;28;20458;-69
2024/01/15 01:29:20;;;;;;;18.02;2.20;;;2.40;99.90;;;;;;5075634;28;20044;-70
2024/01/15 01:31:46;;;;;;;15.73;2.40;;;2.40;99.90;;;;;;5074092;28;20123;-70
2024/01/15 01:34:15;;;;;;;13.77;1.92;;;2.40;99.90;;;;;;5073952;28;20045;-70
2024/01/15 01:36:42;;;;;;;9.50;1.42;;;2.40;99.90;;;;;;5074251;28;20036;-70
2024/01/15 01:39:07;;;;;;;11.88;1.83;;;2.40;99.90;;;;;;5073977;28;20397;-70
2024/01/15 01:41:33;;;;;;;9.50;1.38;;;2.40;99.90;;;;;;5073898;28;20046;-70
2024/01/15 01:43:59;;;;;;;3.67;0.70;;;2.20;99.90;;;;;;5073598;28;20044;-70
2024/01/15 01:46:27;;;;;;;5.63;0.88;;;2.20;99.90;;;;;;5075301;28;20041;-70
2024/01/15 01:48:54;;;;;;;4.20;0.68;;;2.20;99.90;;;;;;5074784;28;20048;-70
2024/01/15 01:51:22;;;;;;;2.53;0.65;;;2.20;99.90;;;;;;5057263;28;20037;-70
2024/01/15 01:53:48;;;;;;;4.47;0.57;;;2.20;99.90;;;;;;5073649;28;20083;-70
2024/01/15 01:56:14;;;;;;;4.63;0.60;;;2.20;99.90;;;;;;5075187;28;20067;-70
2024/01/15 01:58:40;;;;;;;5.82;0.98;;;2.20;99.90;;;;;;5073582;28;20485;-70
2024/01/15 02:01:06;;;;;;;3.10;0.50;;;2.10;99.90;;;;;;5075050;28;20133;-70
2024/01/15 02:03:32;;;;;;;4.57;0.70;;;2.00;99.90;;;;;;5073273;28;20409;-69
2024/01/15 02:05:59;;;;;;;4.18;0.80;;;2.10;99.90;;;;;;5073448;28;20098;-70
2024/01/15 02:08:26;;;;;;;4.10;0.63;;;2.20;99.90;;;;;;5074906;28;20072;-70
2024/01/15 02:10:52;;;;;;;5.60;1.00;;;2.10;99.90;;;;;;5074851;28;20046;-70
2024/01/15 02:13:18;;;;;;;4.97;0.65;;;2.10;99.90;;;;;;5073257;28;20112;-70
2024/01/15 02:15:44;;;;;;;6.03;1.13;;;2.10;99.90;;;;;;5073446;28;20040;-71
2024/01/15 02:18:10;;;;;;;9.15;1.20;;;2.00;99.90;;;;;;5073428;28;20466;-70
2024/01/15 02:20:36;;;;;;;7.25;1.30;;;2.10;99.90;;;;;;5056512;28;20052;-70
2024/01/15 02:23:14;;;;;;;9.95;1.25;;;2.00;99.90;;;;;;5073316;28;20041;-70
2024/01/15 02:25:41;;;;;;;10.10;2.33;;;2.10;99.90;;;;;;5074377;28;20075;-70
2024/01/15 02:28:14;;;;;;;10.85;1.73;;;2.00;99.90;;;;;;5074494;28;20086;-70
2024/01/15 02:30:41;;;;;;;13.43;1.55;;;2.00;99.90;;;;;;5074756;28;20047;-70
2024/01/15 02:33:08;;;;;;;8.95;1.30;;;2.00;99.90;;;;;;5074441;28;20067;-70
2024/01/15 02:35:37;;;;;;;9.90;1.60;;;2.00;99.90;;;;;;5073997;28;20513;-70
2024/01/15 02:38:04;;;;;;;15.23;2.45;;;2.00;99.90;;;;;;5072742;28;20052;-70
2024/01/15 02:40:30;;;;;;;14.77;2.15;;;2.10;99.90;;;;;;5072734;28;20094;-70
2024/01/15 02:42:56;;;;;;;15.48;2.13;;;2.10;99.90;;;;;;5074028;28;20037;-70
2024/01/15 02:45:22;;;;;;;12.57;1.80;;;2.00;99.90;;;;;;5073993;28;20090;-70
2024/01/15 02:47:48;;;;;;;9.98;1.30;;;2.10;99.90;;;;;;5072577;28;20057;-70
2024/01/15 02:50:14;;;;;;;16.30;1.92;;;2.10;99.90;;;;;;5074065;28;20117;-70
2024/01/15 02:52:40;;;;;;;12.30;2.08;;;2.10;99.90;;;;;;5055853;28;20058;-70
2024/01/15 02:55:06;;;;;;;13.57;1.98;;;2.10;99.90;;;;;;5073924;28;20119;-70
2024/01/15 02:57:31;;;;;;;10.27;1.67;;;2.20;99.90;;;;;;5073984;28;20528;-70
2024/01/15 02:59:57;;;;;;;10.73;1.48;;;2.20;99.90;;;;;;5072659;28;20512;-70
2024/01/15 03:02:22;;;;;;;14.60;1.60;;;2.20;99.90;;;;;;5072332;28;20497;-70
2024/01/15 03:04:48;;;;;;;11.63;1.63;;;2.30;99.90;;;;;;5073370;28;20173;-70
2024/01/15 03:07:14;;;;;;;10.73;2.05;;;2.30;99.90;;;;;;5072217;28;20048;-70
2024/01/15 03:09:39;;;;;;;10.50;1.95;;;2.30;99.90;;;;;;5073375;28;20047;-70
2024/01/15 03:12:05;;;;;;;12.73;1.45;;;2.30;99.90;;;;;;5072438;28;20050;-70
2024/01/15 03:14:31;;;;;;;14.70;2.00;;;2.30;99.90;;;;;;5073221;28;20481;-70
2024/01/15 03:16:56;;;;;;;13.65;2.15;;;2.30;99.90;;;;;;5072098;28;20036;-70
2024/01/15 03:19:22;;;;;;;18.25;2.10;;;2.30;99.90;;;;;;5073638;28;20517;-70
2024/01/15 03:21:48;;;;;;;12.07;2.00;;;2.30;99.90;;;;;;5072083;28;20063;-70
2024/01/15 03:24:13;;;;;;;16.92;2.38;;;2.20;99.90;;;;;;5073443;28;20086;-69
2024/01/15 03:26:39;;;;;;;14.20;1.90;;;2.30;99.90;;;;;;5072251;28;20047;-70
2024/01/15 03:29:05;;;;;;;11.75;1.80;;;2.20;99.90;;;;;;5071967;28;20042;-70
2024/01/15 03:31:31;;;;;;;17.40;2.38;;;2.20;99.90;;;;;;5073463;28;20036;-70
2024/01/15 03:33:56;;;;;;;11.63;1.77;;;2.20;99.90;;;;;;5072100;28;20043;-69
2024/01/15 03:36:22;;;;;;;19.25;2.85;;;2.30;99.90;;;;;;5071889;28;20501;-70
2024/01/15 03:38:48;;;;;;;18.08;2.10;;;2.30;99.90;;;;;;5073403;28;20071;-70
2024/01/15 03:41:13;;;;;;;10.85;1.55;;;2.20;99.90;;;;;;5073045;28;20532;-70
2024/01/15 03:43:39;;;;;;;12.70;1.60;;;2.40;99.90;;;;;;5071774;28;20159;-70
2024/01/15 03:46:05;;;;;;;10.00;1.60;;;2.40;99.90;;;;;;5071836;28;20048;-70
2024/01/15 03:48:31;;;;;;;13.15;2.35;;;2.40;99.90;;;;;;5073330;28;20033;-70
2024/01/15 03:50:56;;;;;;;9.38;1.83;;;2.40;99.90;;;;;;5071805;28;20404;-70
2024/01/15 03:53:22;;;;;;;12.77;1.80;;;2.40;99.90;;;;;;5071738;28;20040;-70
2024/01/15 03:55:48;;;;;;;10.63;1.77;;;2.50;99.90;;;;;;5071589;28;20045;-70
2024/01/15 03:58:14;;;;;;;9.00;1.90;;;2.50;99.90;;;;;;5073213;28;20087;-69
2024/01/15 04:00:40;;;;;;;13.13;1.60;;;2.50;99.90;;;;;;5073223;28;20040;-69
2024/01/15 04:03:06;;;;;;;8.77;1.40;;;2.50;99.90;;;;;;5071641;28;20519;-69
2024/01/15 04:05:31;;;;;;;8.35;2.03;;;2.40;99.90;;;;;;5072960;28;20090;-70
2024/01/15 04:07:57;;;;;;;8.50;1.25;;;2.40;99.90;;;;;;5071624;28;20400;-70
2024/01/15 04:10:23;;;;;;;11.13;1.90;;;2.40;99.90;;;;;;5071550;28;20033;-70
2024/01/15 04:12:48;;;;;;;10.48;1.75;;;2.30;99.90;;;;;;5073024;28;20119;-70
2024/01/15 04:15:14;;;;;;;11.52;1.60;;;2.40;99.90;;;;;;5071519;28;20047;-70
2024/01/15 04:17:39;;;;;;;13.13;1.83;;;2.30;99.90;;;;;;5071531;28;20040;-70
2024/01/15 04:20:06;;;;;;;12.25;1.25;;;2.30;99.90;;;;;;5071436;28;20083;-70
2024/01/15 04:22:33;;;;;;;10.95;1.52;;;2.30;99.90;;;;;;5071451;28;20505;-70
2024/01/15 04:24:58;;;;;;;9.75;1.52;;;2.30;99.90;;;;;;5072785;28;20055;-70
2024/01/15 04:27:24;;;;;;;14.10;1.98;;;2.30;99.90;;;;;;5073907;28;20040;-70
2024/01/15 04:29:50;;;;;;;11.60;1.40;;;2.30;99.90;;;;;;5075212;28;20044;-70
2024/01/15 04:32:15;;;;;;;14.55;2.42;;;2.20;99.90;;;;;;5058803;28;20084;-70
2024/01/15 04:34:41;;;;;;;11.98;1.80;;;2.20;99.90;;;;;;5075326;28;20405;-70
2024/01/15 04:37:07;;;;;;;15.60;2.30;;;2.30;99.90;;;;;;5075391;28;20079;-70
2024/01/15 04:39:32;;;;;;;14.95;2.03;;;2.30;99.90;;;;;;5076529;28;20094;-70
2024/01/15 04:41:58;;;;;;;15.00;2.22;;;2.20;99.90;;;;;;5076511;28;20090;-70
2024/01/15 04:44:23;;;;;;;13.82;2.00;;;2.40;99.90;;;;;;5074890;28;20072;-70
2024/01/15 04:46:49;;;;;;;15.40;2.08;;;2.40;99.90;;;;;;5074922;28;20497;-70
2024/01/15 04:49:14;;;;;;;13.50;2.28;;;2.40;99.90;;;;;;5076356;28;20043;-70
2024/01/15 04:51:40;;;;;;;18.05;2.40;;;2.40;99.90;;;;;;5074829;28;20115;-70
2024/01/15 04:54:06;;;;;;;14.15;1.95;;;2.30;99.90;;;;;;5074721;28;20048;-70
2024/01/15 04:56:31;;;;;;;13.38;1.80;;;2.40;99.90;;;;;;5074755;28;20124;-70
2024/01/15 04:58:57;;;;;;;10.52;1.80;;;2.40;99.90;;;;;;5076233;28;20044;-70
2024/01/15 05:01:22;;;;;;;15.10;2.72;;;2.40;99.90;;;;;;5074687;28;20039;-70
2024/01/15 05:03:49;;;;;;;13.25;1.95;;;2.50;99.90;;;;;;5074479;28;20049;-69
2024/01/15 05:06:14;;;;;;;11.93;1.75;;;2.40;99.90;;;;;;5075744;28;20489;-70
2024/01/15 05:08:40;;;;;;;12.23;1.65;;;2.40;99.90;;;;;;5074511;28;20040;-70
2024/01/15 05:11:06;;;;;;;15.35;2.15;;;2.40;99.90;;;;;;5074468;28;20036;-70
2024/01/15 05:13:31;;;;;;;9.88;1.65;;;2.30;99.90;;;;;;5075908;28;20032;-70
2024/01/15 05:15:57;;;;;;;11.65;1.80;;;2.30;99.90;;;;;;5074386;28;20500;-70
2024/01/15 05:18:22;;;;;;;14.50;1.88;;;2.30;99.90;;;;;;5075862;28;20113;-70
2024/01/15 05:20:48;;;;;;;9.75;1.65;;;2.20;99.90;;;;;;5074314;28;20098;-70
2024/01/15 05:23:14;;;;;;;11.73;1.70;;;2.20;99.90;;;;;;5075771;28;20048;-70
2024/01/15 05:25:39;;;;;;;13.45;2.13;;;2.20;99.90;;;;;;5075321;28;20382;-70
2024/01/15 05:28:05;;;;;;;10.43;2.08;;;2.20;99.90;;;;;;5075662;28;20115;-70
2024/01/15 05:30:31;;;;;;;10.93;1.38;;;2.20;99.90;;;;;;5074164;28;20045;-70
2024/01/15 05:32:57;;;;;;;8.48;1.50;;;2.20;99.90;;;;;;5074102;28;20048;-70
2024/01/15 05:35:23;;;;;;;16.17;1.67;;;2.20;99.90;;;;;;5075452;28;20074;-70
2024/01/15 05:37:48;;;;;;;13.32;2.15;;;2.20;99.90;;;;;;5073943;28;20044;-70
2024/01/15 05:40:14;;;;;;;12.18;1.90;;;2.20;99.90;;;;;;5074266;28;20488;-70
2024/01/15 05:42:41;;;;;;;16.15;2.10;;;2.20;99.90;;;;;;5073972;28;20043;-70
2024/01/15 05:45:06;;;;;;;13.43;1.88;;;2.20;99.90;;;;;;5073867;28;20040;-70
2024/01/15 05:47:32;;;;;;;12.82;1.52;;;2.10;99.90;;;;;;5075078;28;20397;-70
2024/01/15 05:50:01;;;;;;;10.60;1.50;;;2.00;99.90;;;;;;5075281;28;20047;-70
2024/01/15 05:52:26;;;;;;;12.80;1.65;;;2.10;99.90;;;;;;5073731;28;20036;-70
2024/01/15 05:54:52;;;;;;;17.48;2.20;;;2.00;99.90;;;;;;5075096;28;20032;-70
2024/01/15 05:57:17;;;;;;;13.88;1.80;;;1.90;99.90;;;;;;5073651;28;20094;-70
2024/01/15 05:59:44;;;;;;;10.32;1.67;;;2.00;99.90;;;;;;5073573;28;20136;-70
2024/01/15 06:02:10;;;;;;;12.60;1.90;;;1.90;99.90;;;;;;5075021;28;20123;-70
2024/01/15 06:04:36;;;;;;;20.15;2.13;;;1.90;99.90;;;;;;5074839;28;20044;-70
2024/01/15 06:07:02;;;;;;;12.15;1.80;;;1.90;99.90;;;;;;5073452;28;20443;-70
2024/01/15 06:09:28;;;;;;;10.95;1.65;;;1.90;99.90;;;;;;5074630;28;20037;-70
2024/01/15 06:11:54;;;;;;;13.80;1.90;;;1.90;99.90;;;;;;5075138;28;20047;-70
2024/01/15 06:14:20;;;;;;;16.08;2.38;;;1.80;99.90;;;;;;5073456;28;20044;-70
2024/01/15 06:16:46;;;;;;;8.80;1.80;;;1.80;99.90;;;;;;5073244;28;20446;-70
2024/01/15 06:19:11;;;;;;;15.48;2.10;;;1.80;99.90;;;;;;5073449;28;20102;-70
2024/01/15 06:21:37;;;;;;;17.83;2.08;;;1.80;99.90;;;;;;5073107;28;20506;-70
2024/01/15 06:24:03;;;;;;;12.32;1.70;;;1.70;99.90;;;;;;5073195;28;20045;-70
2024/01/15 06:26:28;;;;;;;15.95;2.50;;;1.70;99.90;;;;;;5073101;28;20064;-70
2024/01/15 06:28:54;;;;;;;10.82;1.50;;;1.70;99.90;;;;;;5074209;28;20032;-70
2024/01/15 06:31:19;;;;;;;13.82;2.05;;;1.70;99.90;;;;;;5072957;28;20110;-70
2024/01/15 06:33:48;;;;;;;15.05;1.80;;;1.70;99.90;;;;;;5072817;28;20037;-70
2024/01/15 06:36:14;;;;;;;15.60;2.10;;;1.60;99.90;;;;;;5072791;28;20128;-70
2024/01/15 06:38:39;;;;;;;14.13;1.90;;;1.60;99.90;;;;;;5073992;28;20493;-70
2024/01/15 06:41:05;;;;;;;13.85;1.73;;;1.60;99.90;;;;;;5074232;28;20048;-70
2024/01/15 06:43:31;;;;;;;14.85;2.33;;;1.60;99.90;;;;;;5072410;28;20036;-70
2024/01/15 06:45:56;;;;;;;17.33;2.10;;;1.70;99.90;;;;;;5074044;28;20119;-70
2024/01/15 06:48:22;;;;;;;12.50;1.88;;;1.60;99.90;;;;;;5072362;28;20047;-70
2024/01/15 06:50:47;;;;;;;13.60;2.35;;;1.60;99.90;;;;;;5073616;28;20032;-70
2024/01/15 06:53:13;;;;;;;16.23;1.80;;;1.60;99.90;;;;;;5072450;28;20547;-70
2024/01/15 06:55:39;;;;;;;17.40;2.47;;;1.60;99.90;;;;;;5072410;28;20045;-70
2024/01/15 06:58:05;;;;;;;14.85;2.08;;;1.60;99.90;;;;;;5072412;28;20051;-70
2024/01/15 07:00:30;;;;;;;15.43;2.50;;;1.60;99.90;;;;;;5073563;28;20032;-70
2024/01/15 07:02:56;;;;;;;14.02;2.40;;;1.60;99.90;;;;;;5073888;28;20068;-70
2024/01/15 07:05:23;;;;;;;18.20;2.50;;;1.60;99.90;;;;;;5073446;28;20405;-70
2024/01/15 07:07:48;;;;;;;14.45;3.20;;;1.50;99.90;;;;;;5072217;28;20481;-70
2024/01/15 07:10:14;;;;;;;14.48;2.00;;;1.60;99.90;;;;;;5073705;28;20047;-70
2024/01/15 07:12:42;;;;;;;11.80;2.00;;;1.60;99.90;;;;;;5072260;28;20045;-70
2024/01/15 07:15:08;;;;;;;15.88;2.45;;;1.60;99.90;;;;;;5072056;28;20090;-71
2024/01/15 07:17:34;;;;;;;17.77;2.63;;;1.70;99.90;;;;;;5072131;28;20041;-70
2024/01/15 07:20:00;;;;;;;17.80;2.53;;;1.60;99.90;;;;;;5072330;28;20039;-70
2024/01/15 07:22:25;;;;;;;16.77;2.42;;;1.60;99.90;;;;;;5073564;28;20485;-70
2024/01/15 07:24:51;;;;;;;15.30;2.75;;;1.60;99.90;;;;;;5072053;28;20120;-70
2024/01/15 07:27:17;;;;;;;19.08;3.13;;;1.70;99.90;;;;;;5072244;28;20524;-71
2024/01/15 07:29:42;;;;;;;13.88;1.95;;;1.70;99.90;;;;;;5073487;28;20032;-71
2024/01/15 07:32:08;;;;;;;14.63;1.95;;;1.60;99.90;;;;;;5055504;28;20441;-71
2024/01/15 07:34:34;;;;;;;11.65;2.13;;;1.60;99.90;;;;;;5072118;28;20040;-71
2024/01/15 07:37:00;;;;;;;12.30;2.03;;;1.70;99.90;;;;;;5072176;28;20389;-71
2024/01/15 07:39:26;;;;;;;16.42;3.00;;;1.60;99.90;;;;;;5071855;28;20496;-71
2024/01/15 07:41:52;;;;;;;10.82;1.70;;;1.60;99.90;;;;;;5073380;28;20047;-71
2024/01/15 07:44:17;;;;;;;10.20;1.50;;;1.60;99.90;;;;;;5072871;28;20040;-71
2024/01/15 07:46:47;;;;;;;12.38;1.83;;;1.50;99.90;;;;;;5073343;28;20078;-71
2024/01/15 07:49:13;;;;;;;14.43;1.75;;;1.60;99.90;;;;;;5071772;28;20051;-71
2024/01/15 07:51:40;;;;;;;11.02;1.88;;;1.50;99.90;;;;;;5073285;28;20032;-71
2024/01/15 07:54:06;;;;;;;15.18;2.15;;;1.60;99.90;;;;;;5073146;28;20056;-70
2024/01/15 07:56:32;;;;;;;18.30;2.33;;;1.60;99.90;;;;;;5071747;28;20052;-71
2024/01/15 07:58:58;;;;;;;13.07;1.92;;;1.60;99.90;;;;;;5071996;28;20045;-71
2024/01/15 08:01:23;;;;;;;17.38;2.95;;;1.60;99.90;;;;;;5075839;28;20378;-71
2024/01/15 08:03:49;;;;;;;12.73;1.80;;;1.60;99.90;;;;;;5076881;28;20085;-71
2024/01/15 08:06:15;;;;;;;13.90;2.33;;;1.60;99.90;;;;;;5077239;28;20037;-71
2024/01/15 08:08:41;;;;;;;18.92;2.67;;;1.60;99.90;;;;;;5077233;28;20045;-71
2024/01/15 08:11:06;;;;;;;14.45;1.90;;;1.60;99.90;;;;;;5075617;28;20043;-72
2024/01/15 08:13:32;;;;;;;10.88;2.80;;;1.60;99.90;;;;;;5077003;28;20032;-71
2024/01/15 08:15:58;;;;;;;12.27;1.92;;;1.50;99.90;;;;;;5077096;28;20072;-72
2024/01/15 08:18:23;;;;;;;14.00;2.10;;;1.60;99.90;;;;;;5075503;28;20039;-72
2024/01/15 08:20:51;;;;;;;16.20;2.15;;;1.60;99.90;;;;;;5059023;28;20048;-72
2024/01/15 08:23:17;;;;;;;16.58;2.10;;;1.60;99.90;;;;;;5076889;28;20044;-72
2024/01/15 08:25:42;;;;;;;14.48;1.85;;;1.60;99.90;;;;;;5075192;28;20132;-72
2024/01/15 08:28:08;;;;;;;16.85;2.63;;;1.60;99.90;;;;;;5075307;28;20048;-72
2024/01/15 08:30:34;;;;;;;19.83;3.65;;;1.70;99.90;;;;;;5075826;28;20040;-72
2024/01/15 08:33:00;;;;;;;14.05;2.10;;;1.70;99.90;;;;;;5076693;28;20037;-72
2024/01/15 08:35:25;;;;;;;18.25;2.85;;;1.60;99.90;;;;;;5075342;28;20048;-71
2024/01/15 08:37:54;;;;;;;15.75;2.58;;;1.70;99.90;;;;;;5075135;28;20486;-71
2024/01/15 08:40:20;;;;;;;11.55;2.25;;;1.70;99.90;;;;;;5075002;28;20520;-71
2024/01/15 08:42:45;;;;;;;14.90;1.85;;;1.80;99.90;;;;;;5074946;28;20056;-71
2024/01/15 08:45:12;;;;;;;15.35;1.98;;;1.80;99.90;;;;;;5074601;28;20045;-71
2024/01/15 08:47:37;;;;;;;18.13;2.15;;;1.90;99.90;;;;;;5076448;28;20029;-70
2024/01/15 08:50:04;;;;;;;11.23;2.35;;;2.00;99.90;;;;;;5076071;28;20094;-70
2024/01/15 08:52:30;;;;;;;14.02;2.17;;;1.90;99.90;;;;;;5074780;28;20044;-70
2024/01/15 08:54:56;;;;;;;11.73;2.83;;;1.90;99.90;;;;;;5074762;28;20075;-70
2024/01/15 08:57:22;;;;;;;12.35;2.13;;;1.90;99.90;;;;;;5076278;28;20041;-70
2024/01/15 08:59:48;;;;;;;14.10;2.00;;;2.00;99.90;;;;;;5074695;28;20048;-70
2024/01/15 09:02:13;;;;;;;11.18;1.90;;;2.00;99.90;;;;;;5074938;28;20044;-71
2024/01/15 09:04:39;;;;;;;13.00;1.88;;;2.10;99.90;;;;;;5075932;28;20083;-70
2024/01/15 09:07:05;;;;;;;13.68;2.75;;;2.20;99.90;;;;;;5076139;28;20055;-71
2024/01/15 09:09:30;;;;;;;14.13;2.08;;;2.20;99.90;;;;;;5074667;28;20044;-71
2024/01/15 09:11:56;;;;;;;11.52;2.30;;;2.30;99.90;;;;;;5075345;28;20076;-71
2024/01/15 09:14:24;;;;;;;15.25;1.92;;;2.40;99.90;;;;;;5074369;28;20051;-71
2024/01/15 09:16:49;;;;;;;13.50;2.58;;;2.40;99.90;;;;;;5075814;28;20115;-71
2024/01/15 09:19:15;;;;;;;16.17;2.28;;;2.30;99.90;;;;;;5074268;28;20123;-71
2024/01/15 09:21:40;;;;;;;15.27;2.47;;;2.30;99.90;;;;;;5076396;28;20461;-71
2024/01/15 09:24:06;;;;;;;12.23;2.35;;;2.40;99.90;;;;;;5074349;28;20045;-71
2024/01/15 09:26:32;;;;;;;12.75;2.50;;;2.50;99.90;;;;;;5074505;28;20508;-71
2024/01/15 09:28:57;;;;;;;15.73;2.17;;;2.50;99.90;;;;;;5075718;28;20032;-71
2024/01/15 09:31:23;;;;;;;16.77;3.00;;;2.50;99.90;;;;;;5075804;28;20051;-71
2024/01/15 09:33:51;;;;;;;14.25;2.30;;;2.60;99.90;;;;;;5074179;28;20064;-71
2024/01/15 09:36:17;;;;;;;16.02;2.22;;;2.50;99.90;;;;;;5074352;28;20436;-71
2024/01/15 09:38:42;;;;;;;10.20;1.98;;;2.60;99.90;;;;;;5075578;28;20036;-71
2024/01/15 09:41:08;;;;;;;21.55;2.85;;;2.50;99.90;;;;;;5073993;28;20062;-71
2024/01/15 09:43:34;;;;;;;14.88;2.45;;;2.50;99.90;;;;;;5073777;28;20036;-71
2024/01/15 09:46:01;;;;;;;16.05;3.17;;;2.60;99.90;;;;;;5075291;28;20098;-71
2024/01/15 09:48:27;;;;;;;14.70;2.30;;;2.60;99.90;;;;;;5073829;28;20032;-71
2024/01/15 09:50:53;;;;;;;15.85;1.95;;;2.70;99.90;;;;;;5073788;28;20044;-71
2024/01/15 09:53:20;;;;;;;17.95;2.28;;;2.70;99.90;;;;;;5075236;28;20481;-70
2024/01/15 09:55:46;;;;;;;11.95;2.38;;;2.70;99.90;;;;;;5075134;28;20040;-71
2024/01/15 09:58:12;;;;;;;20.65;2.38;;;2.90;99.90;;;;;;5075157;28;20053;-70
2024/01/15 10:00:41;;;;;;;13.00;2.45;;;2.90;99.90;;;;;;5075127;28;20040;-70
2024/01/15 10:03:08;;;;;;;18.23;2.10;;;2.80;99.90;;;;;;5073539;28;20052;-70
2024/01/15 10:05:33;;;;;;;16.95;2.00;;;2.70;99.90;;;;;;5073378;28;20072;-70
2024/01/15 10:08:00;;;;;;;11.85;1.92;;;2.70;99.90;;;;;;5073716;28;20121;-70
2024/01/15 10:10:26;;;;;;;13.48;2.25;;;2.70;99.90;;;;;;5073680;28;20047;-71
2024/01/15 10:12:51;;;;;;;13.20;2.30;;;2.70;99.90;;;;;;5073367;28;20040;-71
2024/01/15 10:15:17;;;;;;;11.57;2.30;;;2.80;99.90;;;;;;5073226;28;20041;-71
2024/01/15 10:17:43;;;;;;;12.77;1.73;;;2.80;99.90;;;;;;5073488;28;20048;-71
2024/01/15 10:20:11;;;;;;;12.13;1.73;;;2.90;99.90;;;;;;5073223;28;20490;-71
2024/01/15 10:22:40;;;;;;;9.98;2.05;;;3.00;99.90;;;;;;5073144;28;20052;-71
2024/01/15 10:25:06;;;;;;;12.63;1.75;;;3.10;99.90;;;;;;5072464;28;20047;-71
2024/01/15 10:27:31;;;;;;;12.63;2.30;;;3.10;99.90;;;;;;5073023;28;20037;-71
2024/01/15 10:30:02;;;;;;;8.65;1.40;;;3.20;99.90;;;;;;5073025;28;20040;-71
2024/01/15 10:32:27;;;;;;;8.40;1.38;;;3.10;99.90;;;;;;5072978;28;20493;-71
2024/01/15 10:34:54;;;;;;;10.32;1.55;;;3.10;99.90;;;;;;5073087;28;20102;-70
2024/01/15 10:37:20;;;;;;;10.23;1.30;;;3.20;99.90;;;;;;5074041;28;20479;-70
2024/01/15 10:39:47;;;;;;;8.15;1.25;;;3.40;99.90;;;;;;5056164;28;20120;-70
2024/01/15 10:42:12;;;;;;;8.05;1.10;;;3.40;99.90;;;;;;5074243;28;20076;-71
2024/01/15 10:44:38;;;;;;;12.38;1.60;;;3.30;99.90;;;;;;5073723;28;20501;-70
2024/01/15 10:47:04;;;;;;;6.78;1.17;;;3.30;99.90;;;;;;5072917;28;20060;-70
2024/01/15 10:49:30;;;;;;;15.00;1.70;;;3.40;99.90;;;;;;5072623;28;20569;-70
2024/01/15 10:51:57;;;;;;;10.07;1.73;;;3.40;99.90;;;;;;5072531;28;20044;-70
2024/01/15 10:54:23;;;;;;;10.60;1.73;;;3.40;99.90;;;;;;5073720;28;20485;-71
2024/01/15 10:56:51;;;;;;;5.53;1.40;;;3.20;99.90;;;;;;5073637;28;20485;-71
2024/01/15 10:59:18;;;;;;;12.23;1.27;;;3.20;99.90;;;;;;5073641;28;20394;-71
2024/01/15 11:01:45;;;;;;;5.85;1.23;;;3.20;99.90;;;;;;5072372;28;20048;-71
2024/01/15 11:04:10;;;;;;;8.80;0.95;;;3.20;99.90;;;;;;5073742;28;20039;-70
2024/01/15 11:06:45;;;;;;;6.88;1.02;;;3.20;99.90;;;;;;5072304;28;20052;-70
2024/01/15 11:09:12;;;;;;;5.50;0.90;;;3.20;99.90;;;;;;5072561;28;20182;-70
2024/01/15 11:11:43;;;;;;;6.05;1.02;;;3.20;99.90;;;;;;5072283;28;20056;-70
2024/01/15 11:14:09;;;;;;;4.30;0.50;;;3.20;99.90;;;;;;5072392;28;20070;-70
2024/01/15 11:17:07;;;;;;;5.28;0.60;;;3.10;99.90;;;;;;5072251;28;20564;-71
2024/01/15 11:19:42;;;;;;;6.93;0.95;;;3.10;99.90;;;;;;5035071;28;20068;-70
2024/01/15 11:22:30;;;;;;;8.32;0.77;;;3.20;99.90;;;;;;5034666;28;20084;-71
2024/01/15 11:25:01;;;;;;;9.43;1.58;;;3.10;99.90;;;;;;5034351;28;20544;-70
2024/01/15 11:27:47;;;;;;;5.75;0.88;;;3.20;99.90;;;;;;5051261;28;20079;-70
2024/01/15 11:30:13;;;;;;;5.30;0.77;;;3.20;99.90;;;;;;5034667;28;20110;-71
2024/01/15 11:32:42;;;;;;;8.60;1.60;;;3.20;99.90;;;;;;5034487;28;20037;-71
2024/01/15 11:35:09;;;;;;;8.35;1.50;;;3.20;99.90;;;;;;5034123;28;20053;-71
2024/01/15 11:37:54;;;;;;;5.05;0.70;;;3.20;99.90;;;;;;5051042;28;20124;-71
2024/01/15 11:40:37;;;;;;;5.55;1.10;;;3.20;99.90;;;;;;5051026;28;20124;-71
2024/01/15 11:43:04;;;;;;;9.43;1.00;;;3.20;99.90;;;;;;5034583;28;20049;-71
2024/01/15 11:45:32;;;;;;;9.93;1.10;;;3.10;99.90;;;;;;5034310;28;20128;-70
2024/01/15 11:48:15;;;;;;;10.13;1.38;;;3.00;99.90;;;;;;5050899;28;20512;-70
2024/01/15 11:50:45;;;;;;;9.03;1.97;;;2.90;99.90;;;;;;5050971;28;20041;-70
2024/01/15 11:53:18;;;;;;;6.90;1.30;;;2.90;99.90;;;;;;5050923;28;20768;-70
2024/01/15 11:55:45;;;;;;;5.00;1.00;;;2.80;99.90;;;;;;5061910;28;20057;-70
2024/01/15 11:58:11;;;;;;;9.13;1.13;;;2.70;99.90;;;;;;5071751;28;20040;-70
2024/01/15 12:00:44;;;;;;;8.30;1.20;;;2.70;99.90;;;;;;5073186;28;20040;-70
2024/01/15 12:03:10;;;;;;;7.30;0.95;;;2.60;99.90;;;;;;5073173;28;20032;-71
2024/01/15 12:05:41;;;;;;;6.93;1.20;;;2.50;99.90;;;;;;5071606;28;20528;-71
2024/01/15 12:08:10;;;;;;;1.92;0.40;;;2.40;99.90;;;;;;5071651;28;20557;-71
2024/01/15 12:10:37;;;;;;;3.63;0.40;;;2.30;99.90;;;;;;5071857;28;20080;-71
2024/01/15 12:13:03;;;;;;;4.45;0.40;;;2.20;99.90;;;;;;5073070;28;20120;-70
2024/01/15 12:15:29;;;;;;;3.95;0.50;;;2.00;99.90;;;;;;5071841;28;20075;-71
2024/01/15 12:17:57;;;;;;;5.78;0.60;;;2.00;99.90;;;;;;5073044;28;20083;-71
2024/01/15 12:20:24;;;;;;;5.63;0.60;;;2.00;99.90;;;;;;5072601;28;20052;-71
2024/01/15 12:22:50;;;;;;;5.15;0.80;;;2.00;99.90;;;;;;5071729;28;20080;-72
2024/01/15 12:25:15;;;;;;;5.20;0.70;;;1.90;99.90;;;;;;5071333;28;20477;-72
2024/01/15 12:27:41;;;;;;;4.82;0.73;;;1.90;99.90;;;;;;5071415;28;20040;-72
2024/01/15 12:30:10;;;;;;;3.45;0.70;;;1.90;99.90;;;;;;5071648;28;20045;-72
2024/01/15 12:32:35;;;;;;;5.32;0.85;;;2.00;99.90;;;;;;5071300;28;20093;-73
2024/01/15 12:35:01;;;;;;;5.60;1.15;;;2.00;99.90;;;;;;5071281;28;20045;-72
2024/01/15 12:37:27;;;;;;;4.57;0.80;;;2.10;99.90;;;;;;5071546;28;20067;-72
2024/01/15 12:39:54;;;;;;;9.68;1.52;;;2.10;99.90;;;;;;5071311;28;20417;-72
2024/01/15 12:42:21;;;;;;;9.40;0.98;;;2.00;99.90;;;;;;5071257;28;20051;-73
2024/01/15 12:44:47;;;;;;;5.80;0.95;;;2.10;99.90;;;;;;5071031;28;20501;-72
2024/01/15 12:47:14;;;;;;;8.75;1.17;;;2.20;99.90;;;;;;5071772;28;20047;-73